sensor_id;sensor_type;location;lat;lon;timestamp;pressure;altitude;pressure_sealevel;temperature;humidity
79584;BME280;69053;57.338;18.700;2023-05-10T00:01:02;102241.47;;;3.97;79.30
79584;BME280;69053;57.338;18.700;2023-05-10T00:06:02;102240.44;;;3.88;78.95
79584;BME280;69053;57.338;18.700;2023-05-10T00:11:03;102234.47;;;3.84;80.16
79584;BME280;69053;57.338;18.700;2023-05-10T00:16:04;102230.34;;;3.80;80.17
79584;BME280;69053;57.338;18.700;2023-05-10T00:21:05;102232.16;;;3.80;81.07
79584;BME280;69053;57.338;18.700;2023-05-10T00:26:06;102216.88;;;3.90;81.09
79584;BME280;69053;57.338;18.700;2023-05-10T00:31:06;102222.47;;;3.98;80.96
79584;BME280;69053;57.338;18.700;2023-05-10T00:36:07;102218.13;;;4.17;80.29
79584;BME280;69053;57.338;18.700;2023-05-10T00:41:07;102211.72;;;4.68;78.86
79584;BME280;69053;57.338;18.700;2023-05-10T00:46:08;102208.72;;;5.10;76.96
79584;BME280;69053;57.338;18.700;2023-05-10T00:51:09;102201.44;;;5.40;76.00
79584;BME280;69053;57.338;18.700;2023-05-10T00:56:10;102198.38;;;5.62;75.93
79584;BME280;69053;57.338;18.700;2023-05-10T01:01:11;102200.31;;;5.80;74.86
79584;BME280;69053;57.338;18.700;2023-05-10T01:06:12;102203.13;;;5.88;74.54
79584;BME280;69053;57.338;18.700;2023-05-10T01:11:13;102199.41;;;5.99;74.29
79584;BME280;69053;57.338;18.700;2023-05-10T01:16:14;102195.41;;;6.03;73.94
79584;BME280;69053;57.338;18.700;2023-05-10T01:26:50;102192.94;;;6.10;73.85
79584;BME280;69053;57.338;18.700;2023-05-10T01:37:21;102193.31;;;5.97;75.16
79584;BME280;69053;57.338;18.700;2023-05-10T01:42:26;102193.41;;;5.95;75.13
79584;BME280;69053;57.338;18.700;2023-05-10T01:47:38;102191.72;;;5.94;75.32
79584;BME280;69053;57.338;18.700;2023-05-10T01:52:53;102193.75;;;5.82;75.42
79584;BME280;69053;57.338;18.700;2023-05-10T01:58:05;102196.94;;;5.68;75.84
79584;BME280;69053;57.338;18.700;2023-05-10T02:03:07;102205.81;;;5.60;76.42
79584;BME280;69053;57.338;18.700;2023-05-10T02:08:09;102204.09;;;5.50;76.96
79584;BME280;69053;57.338;18.700;2023-05-10T02:13:11;102204.97;;;5.50;77.33
79584;BME280;69053;57.338;18.700;2023-05-10T02:18:12;102215.94;;;5.39;77.19
79584;BME280;69053;57.338;18.700;2023-05-10T02:23:14;102209.41;;;5.22;76.85
79584;BME280;69053;57.338;18.700;2023-05-10T02:28:17;102206.16;;;5.08;77.42
79584;BME280;69053;57.338;18.700;2023-05-10T02:33:19;102220.09;;;5.14;78.27
79584;BME280;69053;57.338;18.700;2023-05-10T02:38:21;102216.97;;;5.18;78.21
79584;BME280;69053;57.338;18.700;2023-05-10T02:43:24;102225.06;;;5.18;78.46
79584;BME280;69053;57.338;18.700;2023-05-10T02:48:25;102221.94;;;5.13;78.60
79584;BME280;69053;57.338;18.700;2023-05-10T02:53:31;102225.19;;;5.07;78.88
79584;BME280;69053;57.338;18.700;2023-05-10T02:58:32;102220.81;;;5.06;79.35
79584;BME280;69053;57.338;18.700;2023-05-10T03:03:33;102218.25;;;5.04;79.45
79584;BME280;69053;57.338;18.700;2023-05-10T03:08:33;102216.97;;;4.99;79.80
79584;BME280;69053;57.338;18.700;2023-05-10T03:19:12;102218.25;;;5.04;79.97
79584;BME280;69053;57.338;18.700;2023-05-10T03:24:14;102224.63;;;5.03;80.11
79584;BME280;69053;57.338;18.700;2023-05-10T03:29:15;102218.13;;;5.06;79.95
79584;BME280;69053;57.338;18.700;2023-05-10T03:34:23;102213.41;;;5.08;80.09
79584;BME280;69053;57.338;18.700;2023-05-10T03:39:23;102216.97;;;5.08;79.57
79584;BME280;69053;57.338;18.700;2023-05-10T03:44:25;102219.66;;;5.08;79.32
79584;BME280;69053;57.338;18.700;2023-05-10T03:49:25;102223.22;;;5.09;79.06
79584;BME280;69053;57.338;18.700;2023-05-10T03:54:25;102222.66;;;5.15;78.68
79584;BME280;69053;57.338;18.700;2023-05-10T03:59:26;102221.50;;;5.28;78.62
79584;BME280;69053;57.338;18.700;2023-05-10T04:04:27;102220.91;;;5.43;78.45
79584;BME280;69053;57.338;18.700;2023-05-10T04:09:27;102231.13;;;5.59;78.45
79584;BME280;69053;57.338;18.700;2023-05-10T04:14:28;102229.38;;;5.78;78.74
79584;BME280;69053;57.338;18.700;2023-05-10T04:19:30;102229.03;;;6.00;78.78
79584;BME280;69053;57.338;18.700;2023-05-10T04:24:30;102235.75;;;6.24;77.95
79584;BME280;69053;57.338;18.700;2023-05-10T04:29:31;102233.19;;;6.50;78.10
79584;BME280;69053;57.338;18.700;2023-05-10T04:34:32;102232.13;;;6.79;78.01
79584;BME280;69053;57.338;18.700;2023-05-10T04:39:34;102225.56;;;7.00;76.97
79584;BME280;69053;57.338;18.700;2023-05-10T04:44:35;102225.53;;;7.18;76.54
79584;BME280;69053;57.338;18.700;2023-05-10T04:49:36;102228.78;;;7.39;76.49
79584;BME280;69053;57.338;18.700;2023-05-10T04:54:37;102224.66;;;7.61;75.83
79584;BME280;69053;57.338;18.700;2023-05-10T04:59:37;102231.78;;;7.88;75.41
79584;BME280;69053;57.338;18.700;2023-05-10T05:04:39;102225.25;;;8.07;74.72
79584;BME280;69053;57.338;18.700;2023-05-10T05:09:39;102238.75;;;8.25;74.13
79584;BME280;69053;57.338;18.700;2023-05-10T05:14:40;102235.47;;;8.48;74.11
79584;BME280;69053;57.338;18.700;2023-05-10T05:19:44;102241.81;;;8.65;73.25
79584;BME280;69053;57.338;18.700;2023-05-10T05:24:45;102235.56;;;8.89;71.90
79584;BME280;69053;57.338;18.700;2023-05-10T05:29:45;102231.69;;;9.08;70.57
79584;BME280;69053;57.338;18.700;2023-05-10T05:34:46;102237.81;;;9.27;69.71
79584;BME280;69053;57.338;18.700;2023-05-10T05:39:47;102233.91;;;9.46;69.78
79584;BME280;69053;57.338;18.700;2023-05-10T05:44:48;102239.63;;;9.67;68.64
79584;BME280;69053;57.338;18.700;2023-05-10T05:49:48;102241.78;;;9.88;68.54
79584;BME280;69053;57.338;18.700;2023-05-10T05:54:49;102250.56;;;10.15;68.34
79584;BME280;69053;57.338;18.700;2023-05-10T05:59:49;102247.94;;;10.38;66.37
79584;BME280;69053;57.338;18.700;2023-05-10T06:04:50;102252.34;;;10.47;65.77
79584;BME280;69053;57.338;18.700;2023-05-10T06:09:50;102257.66;;;10.72;65.76
79584;BME280;69053;57.338;18.700;2023-05-10T06:14:51;102251.69;;;11.00;64.24
79584;BME280;69053;57.338;18.700;2023-05-10T06:19:52;102255.63;;;11.20;62.80
79584;BME280;69053;57.338;18.700;2023-05-10T06:24:52;102253.31;;;11.32;62.06
79584;BME280;69053;57.338;18.700;2023-05-10T06:29:53;102255.78;;;11.42;61.07
79584;BME280;69053;57.338;18.700;2023-05-10T06:34:54;102256.50;;;11.59;60.91
79584;BME280;69053;57.338;18.700;2023-05-10T06:39:54;102257.72;;;11.86;60.68
79584;BME280;69053;57.338;18.700;2023-05-10T06:44:55;102268.25;;;11.97;59.86
79584;BME280;69053;57.338;18.700;2023-05-10T06:49:56;102268.44;;;12.11;59.51
79584;BME280;69053;57.338;18.700;2023-05-10T06:54:56;102269.94;;;12.28;59.23
79584;BME280;69053;57.338;18.700;2023-05-10T07:00:01;102281.59;;;12.52;58.93
79584;BME280;69053;57.338;18.700;2023-05-10T07:05:02;102273.63;;;12.72;58.90
79584;BME280;69053;57.338;18.700;2023-05-10T07:10:03;102278.13;;;12.94;58.12
79584;BME280;69053;57.338;18.700;2023-05-10T07:15:04;102272.78;;;13.29;57.16
79584;BME280;69053;57.338;18.700;2023-05-10T07:25:15;102282.19;;;13.70;56.75
79584;BME280;69053;57.338;18.700;2023-05-10T07:30:16;102282.22;;;13.98;56.50
79584;BME280;69053;57.338;18.700;2023-05-10T07:35:16;102276.88;;;14.18;55.46
79584;BME280;69053;57.338;18.700;2023-05-10T07:40:17;102286.44;;;14.36;55.59
79584;BME280;69053;57.338;18.700;2023-05-10T07:45:21;102289.88;;;14.51;55.32
79584;BME280;69053;57.338;18.700;2023-05-10T07:50:22;102287.34;;;14.50;53.87
79584;BME280;69053;57.338;18.700;2023-05-10T07:55:22;102294.03;;;14.75;54.23
79584;BME280;69053;57.338;18.700;2023-05-10T08:00:23;102293.66;;;14.98;53.21
79584;BME280;69053;57.338;18.700;2023-05-10T08:05:23;102287.16;;;15.19;52.65
79584;BME280;69053;57.338;18.700;2023-05-10T08:10:24;102290.16;;;15.58;51.65
79584;BME280;69053;57.338;18.700;2023-05-10T08:15:24;102292.50;;;15.88;50.21
79584;BME280;69053;57.338;18.700;2023-05-10T08:20:25;102292.91;;;16.05;50.73
79584;BME280;69053;57.338;18.700;2023-05-10T08:25:26;102289.44;;;16.36;49.75
79584;BME280;69053;57.338;18.700;2023-05-10T08:30:26;102298.03;;;16.60;48.97
79584;BME280;69053;57.338;18.700;2023-05-10T08:35:27;102296.59;;;16.57;48.36
79584;BME280;69053;57.338;18.700;2023-05-10T08:40:27;102291.63;;;16.73;47.58
79584;BME280;69053;57.338;18.700;2023-05-10T08:45:32;102294.56;;;16.84;47.15
79584;BME280;69053;57.338;18.700;2023-05-10T08:50:35;102313.72;;;17.04;46.39
79584;BME280;69053;57.338;18.700;2023-05-10T08:55:37;102297.59;;;17.08;45.84
79584;BME280;69053;57.338;18.700;2023-05-10T09:00:39;102303.28;;;17.13;45.65
79584;BME280;69053;57.338;18.700;2023-05-10T09:05:40;102307.59;;;17.02;45.46
79584;BME280;69053;57.338;18.700;2023-05-10T09:10:43;102300.84;;;16.98;45.42
79584;BME280;69053;57.338;18.700;2023-05-10T09:15:45;102313.25;;;17.14;46.33
79584;BME280;69053;57.338;18.700;2023-05-10T09:20:45;102304.44;;;17.31;47.03
79584;BME280;69053;57.338;18.700;2023-05-10T09:25:46;102307.34;;;17.42;46.93
79584;BME280;69053;57.338;18.700;2023-05-10T09:30:52;102316.97;;;17.58;46.37
79584;BME280;69053;57.338;18.700;2023-05-10T09:35:53;102323.34;;;17.59;45.76
79584;BME280;69053;57.338;18.700;2023-05-10T09:40:54;102312.69;;;17.62;45.89
79584;BME280;69053;57.338;18.700;2023-05-10T09:45:54;102315.63;;;17.68;46.19
79584;BME280;69053;57.338;18.700;2023-05-10T09:50:57;102307.09;;;17.76;45.82
79584;BME280;69053;57.338;18.700;2023-05-10T09:55:58;102303.38;;;17.89;45.45
79584;BME280;69053;57.338;18.700;2023-05-10T10:00:59;102305.31;;;17.88;45.24
79584;BME280;69053;57.338;18.700;2023-05-10T10:05:59;102299.97;;;18.12;45.01
79584;BME280;69053;57.338;18.700;2023-05-10T10:11:00;102303.06;;;18.41;44.91
79584;BME280;69053;57.338;18.700;2023-05-10T10:16:30;102302.50;;;18.69;43.54
79584;BME280;69053;57.338;18.700;2023-05-10T10:21:31;102302.75;;;18.67;44.46
79584;BME280;69053;57.338;18.700;2023-05-10T10:26:39;102298.97;;;18.62;43.76
79584;BME280;69053;57.338;18.700;2023-05-10T10:32:18;102305.34;;;18.62;44.51
79584;BME280;69053;57.338;18.700;2023-05-10T10:37:09;102299.41;;;18.77;44.18
79584;BME280;69053;57.338;18.700;2023-05-10T10:42:10;102303.88;;;18.78;43.03
79584;BME280;69053;57.338;18.700;2023-05-10T10:52:34;102300.97;;;18.73;43.22
79584;BME280;69053;57.338;18.700;2023-05-10T10:57:49;102295.53;;;18.66;43.39
79584;BME280;69053;57.338;18.700;2023-05-10T11:03:05;102287.09;;;18.61;42.53
79584;BME280;69053;57.338;18.700;2023-05-10T11:08:09;102283.88;;;18.83;42.45
79584;BME280;69053;57.338;18.700;2023-05-10T11:13:10;102281.59;;;19.22;41.74
79584;BME280;69053;57.338;18.700;2023-05-10T11:18:23;102286.47;;;19.08;40.87
79584;BME280;69053;57.338;18.700;2023-05-10T11:23:28;102278.25;;;19.20;40.23
79584;BME280;69053;57.338;18.700;2023-05-10T11:28:30;102286.34;;;19.45;39.35
79584;BME280;69053;57.338;18.700;2023-05-10T11:33:30;102284.31;;;19.52;38.82
79584;BME280;69053;57.338;18.700;2023-05-10T11:38:42;102286.63;;;19.67;39.23
79584;BME280;69053;57.338;18.700;2023-05-10T11:43:43;102277.41;;;20.09;39.12
79584;BME280;69053;57.338;18.700;2023-05-10T11:48:46;102282.31;;;20.18;39.20
79584;BME280;69053;57.338;18.700;2023-05-10T11:53:48;102279.16;;;20.27;38.23
79584;BME280;69053;57.338;18.700;2023-05-10T11:58:56;102276.22;;;19.93;38.50
79584;BME280;69053;57.338;18.700;2023-05-10T12:03:58;102283.66;;;20.04;37.89
79584;BME280;69053;57.338;18.700;2023-05-10T12:09:05;102274.88;;;19.95;36.92
79584;BME280;69053;57.338;18.700;2023-05-10T12:14:08;102268.22;;;19.61;37.56
79584;BME280;69053;57.338;18.700;2023-05-10T12:19:09;102269.31;;;19.60;39.24
79584;BME280;69053;57.338;18.700;2023-05-10T12:24:10;102265.63;;;19.90;39.42
79584;BME280;69053;57.338;18.700;2023-05-10T12:29:18;102262.97;;;19.95;38.42
79584;BME280;69053;57.338;18.700;2023-05-10T12:34:32;102268.03;;;20.10;39.43
79584;BME280;69053;57.338;18.700;2023-05-10T12:39:43;102264.03;;;20.17;38.08
79584;BME280;69053;57.338;18.700;2023-05-10T12:44:44;102265.56;;;20.25;38.05
79584;BME280;69053;57.338;18.700;2023-05-10T12:49:45;102265.31;;;20.27;38.07
79584;BME280;69053;57.338;18.700;2023-05-10T12:54:46;102259.63;;;19.93;38.65
79584;BME280;69053;57.338;18.700;2023-05-10T12:59:47;102252.88;;;19.89;38.63
79584;BME280;69053;57.338;18.700;2023-05-10T13:04:48;102257.31;;;20.01;38.82
79584;BME280;69053;57.338;18.700;2023-05-10T13:09:48;102253.91;;;20.23;38.34
79584;BME280;69053;57.338;18.700;2023-05-10T13:14:49;102257.91;;;20.56;37.89
79584;BME280;69053;57.338;18.700;2023-05-10T13:19:49;102258.66;;;20.51;37.56
79584;BME280;69053;57.338;18.700;2023-05-10T13:24:50;102252.69;;;20.42;37.45
79584;BME280;69053;57.338;18.700;2023-05-10T13:29:51;102243.53;;;20.30;37.21
79584;BME280;69053;57.338;18.700;2023-05-10T13:34:51;102244.63;;;20.41;36.71
79584;BME280;69053;57.338;18.700;2023-05-10T13:39:52;102247.72;;;20.45;36.68
79584;BME280;69053;57.338;18.700;2023-05-10T13:44:53;102248.13;;;20.24;36.70
79584;BME280;69053;57.338;18.700;2023-05-10T13:49:53;102229.00;;;20.23;36.30
79584;BME280;69053;57.338;18.700;2023-05-10T13:54:54;102236.16;;;20.07;36.35
79584;BME280;69053;57.338;18.700;2023-05-10T13:59:55;102231.75;;;20.35;36.11
79584;BME280;69053;57.338;18.700;2023-05-10T14:04:57;102225.03;;;20.31;35.30
79584;BME280;69053;57.338;18.700;2023-05-10T14:09:58;102227.69;;;20.26;35.16
79584;BME280;69053;57.338;18.700;2023-05-10T14:14:58;102210.41;;;20.47;34.03
79584;BME280;69053;57.338;18.700;2023-05-10T14:19:59;102212.09;;;20.48;32.61
79584;BME280;69053;57.338;18.700;2023-05-10T14:25:00;102200.00;;;20.37;32.17
79584;BME280;69053;57.338;18.700;2023-05-10T14:30:00;102190.44;;;20.45;31.32
79584;BME280;69053;57.338;18.700;2023-05-10T14:35:01;102181.84;;;20.87;30.51
79584;BME280;69053;57.338;18.700;2023-05-10T14:40:02;102180.31;;;20.79;30.81
79584;BME280;69053;57.338;18.700;2023-05-10T14:45:05;102180.78;;;20.59;30.55
79584;BME280;69053;57.338;18.700;2023-05-10T14:50:06;102166.78;;;20.66;30.71
79584;BME280;69053;57.338;18.700;2023-05-10T14:55:07;102165.47;;;20.28;31.61
79584;BME280;69053;57.338;18.700;2023-05-10T15:00:08;102158.47;;;20.66;31.14
79584;BME280;69053;57.338;18.700;2023-05-10T15:05:09;102158.50;;;20.83;31.29
79584;BME280;69053;57.338;18.700;2023-05-10T15:10:24;102165.25;;;20.87;31.94
79584;BME280;69053;57.338;18.700;2023-05-10T15:15:26;102155.81;;;20.42;32.98
79584;BME280;69053;57.338;18.700;2023-05-10T15:20:27;102153.97;;;20.19;33.57
79584;BME280;69053;57.338;18.700;2023-05-10T15:25:27;102145.44;;;20.09;33.88
79584;BME280;69053;57.338;18.700;2023-05-10T15:30:29;102146.56;;;20.66;32.89
79584;BME280;69053;57.338;18.700;2023-05-10T15:35:29;102139.25;;;20.59;32.96
79584;BME280;69053;57.338;18.700;2023-05-10T15:40:29;102138.69;;;20.74;33.25
79584;BME280;69053;57.338;18.700;2023-05-10T15:45:30;102143.00;;;20.53;33.59
79584;BME280;69053;57.338;18.700;2023-05-10T15:50:34;102130.50;;;20.22;34.16
79584;BME280;69053;57.338;18.700;2023-05-10T15:55:34;102135.91;;;20.29;34.02
79584;BME280;69053;57.338;18.700;2023-05-10T16:00:35;102139.72;;;19.99;34.93
79584;BME280;69053;57.338;18.700;2023-05-10T16:05:35;102131.34;;;19.70;36.36
79584;BME280;69053;57.338;18.700;2023-05-10T16:10:36;102137.50;;;19.48;36.40
79584;BME280;69053;57.338;18.700;2023-05-10T16:15:37;102135.31;;;19.27;36.84
79584;BME280;69053;57.338;18.700;2023-05-10T16:20:37;102137.84;;;19.05;36.84
79584;BME280;69053;57.338;18.700;2023-05-10T16:25:38;102140.22;;;18.89;37.10
79584;BME280;69053;57.338;18.700;2023-05-10T16:30:38;102137.13;;;18.07;38.99
79584;BME280;69053;57.338;18.700;2023-05-10T16:35:40;102145.03;;;17.41;40.59
79584;BME280;69053;57.338;18.700;2023-05-10T16:40:40;102132.50;;;17.45;41.05
79584;BME280;69053;57.338;18.700;2023-05-10T16:45:41;102133.16;;;16.97;43.03
79584;BME280;69053;57.338;18.700;2023-05-10T16:50:44;102146.78;;;16.15;45.79
79584;BME280;69053;57.338;18.700;2023-05-10T16:55:45;102140.56;;;15.54;47.92
79584;BME280;69053;57.338;18.700;2023-05-10T17:00:45;102137.63;;;15.49;48.71
79584;BME280;69053;57.338;18.700;2023-05-10T17:05:46;102140.63;;;15.00;49.91
79584;BME280;69053;57.338;18.700;2023-05-10T17:10:46;102136.59;;;14.70;50.47
79584;BME280;69053;57.338;18.700;2023-05-10T17:15:47;102150.22;;;14.36;50.99
79584;BME280;69053;57.338;18.700;2023-05-10T17:20:48;102155.94;;;13.93;51.95
79584;BME280;69053;57.338;18.700;2023-05-10T17:25:48;102156.16;;;13.57;53.11
79584;BME280;69053;57.338;18.700;2023-05-10T17:30:55;102160.09;;;12.98;54.15
79584;BME280;69053;57.338;18.700;2023-05-10T17:35:56;102162.97;;;12.68;54.87
79584;BME280;69053;57.338;18.700;2023-05-10T17:40:57;102170.13;;;12.32;55.44
79584;BME280;69053;57.338;18.700;2023-05-10T17:45:57;102177.53;;;12.17;56.12
79584;BME280;69053;57.338;18.700;2023-05-10T17:50:58;102175.34;;;11.82;56.91
79584;BME280;69053;57.338;18.700;2023-05-10T17:55:58;102176.47;;;11.58;57.20
79584;BME280;69053;57.338;18.700;2023-05-10T18:01:01;102178.44;;;11.35;58.25
79584;BME280;69053;57.338;18.700;2023-05-10T18:06:03;102168.09;;;11.07;58.36
79584;BME280;69053;57.338;18.700;2023-05-10T18:11:04;102165.88;;;10.87;59.18
79584;BME280;69053;57.338;18.700;2023-05-10T18:16:05;102172.56;;;10.62;59.22
79584;BME280;69053;57.338;18.700;2023-05-10T18:21:07;102185.59;;;10.43;59.86
79584;BME280;69053;57.338;18.700;2023-05-10T18:26:08;102184.69;;;10.20;59.85
79584;BME280;69053;57.338;18.700;2023-05-10T18:31:09;102193.09;;;10.02;60.88
79584;BME280;69053;57.338;18.700;2023-05-10T18:36:10;102191.13;;;9.79;61.63
79584;BME280;69053;57.338;18.700;2023-05-10T18:41:11;102197.16;;;9.58;61.90
79584;BME280;69053;57.338;18.700;2023-05-10T18:46:13;102196.50;;;9.39;63.28
79584;BME280;69053;57.338;18.700;2023-05-10T18:51:14;102200.25;;;9.22;63.24
79584;BME280;69053;57.338;18.700;2023-05-10T18:56:15;102202.28;;;9.04;63.44
79584;BME280;69053;57.338;18.700;2023-05-10T19:01:18;102200.59;;;8.94;64.38
79584;BME280;69053;57.338;18.700;2023-05-10T19:06:18;102208.72;;;8.86;64.82
79584;BME280;69053;57.338;18.700;2023-05-10T19:11:19;102205.00;;;8.79;65.13
79584;BME280;69053;57.338;18.700;2023-05-10T19:16:21;102212.78;;;8.66;65.61
79584;BME280;69053;57.338;18.700;2023-05-10T19:21:21;102209.19;;;8.57;65.58
79584;BME280;69053;57.338;18.700;2023-05-10T19:26:22;102213.06;;;8.46;66.16
79584;BME280;69053;57.338;18.700;2023-05-10T19:31:23;102212.84;;;8.39;66.23
79584;BME280;69053;57.338;18.700;2023-05-10T19:36:23;102216.03;;;8.35;66.50
79584;BME280;69053;57.338;18.700;2023-05-10T19:41:24;102212.97;;;8.30;66.63
79584;BME280;69053;57.338;18.700;2023-05-10T19:46:24;102210.06;;;8.23;66.52
79584;BME280;69053;57.338;18.700;2023-05-10T19:51:26;102209.69;;;8.18;66.27
79584;BME280;69053;57.338;18.700;2023-05-10T19:56:26;102207.00;;;8.18;66.19
79584;BME280;69053;57.338;18.700;2023-05-10T20:01:28;102214.63;;;8.14;66.23
79584;BME280;69053;57.338;18.700;2023-05-10T20:06:29;102216.66;;;8.12;66.41
79584;BME280;69053;57.338;18.700;2023-05-10T20:11:30;102216.66;;;8.12;66.28
79584;BME280;69053;57.338;18.700;2023-05-10T20:16:31;102207.66;;;8.12;66.02
79584;BME280;69053;57.338;18.700;2023-05-10T20:21:32;102208.13;;;8.07;66.42
79584;BME280;69053;57.338;18.700;2023-05-10T20:26:32;102211.19;;;8.04;66.20
79584;BME280;69053;57.338;18.700;2023-05-10T20:31:33;102203.19;;;8.02;66.63
79584;BME280;69053;57.338;18.700;2023-05-10T20:36:33;102210.13;;;7.97;66.62
79584;BME280;69053;57.338;18.700;2023-05-10T20:41:36;102209.28;;;7.96;67.19
79584;BME280;69053;57.338;18.700;2023-05-10T20:46:38;102203.69;;;7.98;66.82
79584;BME280;69053;57.338;18.700;2023-05-10T20:51:38;102204.19;;;7.93;66.71
79584;BME280;69053;57.338;18.700;2023-05-10T20:56:39;102197.53;;;7.87;66.95
79584;BME280;69053;57.338;18.700;2023-05-10T21:01:39;102199.75;;;7.84;67.02
79584;BME280;69053;57.338;18.700;2023-05-10T21:06:42;102207.16;;;7.82;67.33
79584;BME280;69053;57.338;18.700;2023-05-10T21:11:43;102210.38;;;7.77;67.60
79584;BME280;69053;57.338;18.700;2023-05-10T21:16:43;102206.25;;;7.73;67.31
79584;BME280;69053;57.338;18.700;2023-05-10T21:21:44;102217.44;;;7.70;67.48
79584;BME280;69053;57.338;18.700;2023-05-10T21:26:44;102212.00;;;7.70;67.89
79584;BME280;69053;57.338;18.700;2023-05-10T21:31:45;102217.44;;;7.70;67.70
79584;BME280;69053;57.338;18.700;2023-05-10T21:36:45;102215.22;;;7.65;67.70
79584;BME280;69053;57.338;18.700;2023-05-10T21:41:46;102208.25;;;7.63;67.56
79584;BME280;69053;57.338;18.700;2023-05-10T21:46:46;102212.97;;;7.61;67.79
79584;BME280;69053;57.338;18.700;2023-05-10T21:51:47;102215.84;;;7.59;67.61
79584;BME280;69053;57.338;18.700;2023-05-10T21:56:48;102206.03;;;7.58;67.83
79584;BME280;69053;57.338;18.700;2023-05-10T22:01:51;102207.19;;;7.56;67.95
79584;BME280;69053;57.338;18.700;2023-05-10T22:06:52;102206.97;;;7.49;68.19
79584;BME280;69053;57.338;18.700;2023-05-10T22:11:52;102210.69;;;7.48;67.78
79584;BME280;69053;57.338;18.700;2023-05-10T22:16:53;102216.44;;;7.45;67.74
79584;BME280;69053;57.338;18.700;2023-05-10T22:21:53;102207.13;;;7.47;67.58
79584;BME280;69053;57.338;18.700;2023-05-10T22:26:54;102212.00;;;7.44;68.08
79584;BME280;69053;57.338;18.700;2023-05-10T22:31:56;102215.91;;;7.41;68.00
79584;BME280;69053;57.338;18.700;2023-05-10T22:36:57;102218.78;;;7.40;68.29
79584;BME280;69053;57.338;18.700;2023-05-10T22:41:58;102216.22;;;7.38;68.42
79584;BME280;69053;57.338;18.700;2023-05-10T22:46:59;102221.25;;;7.33;68.65
79584;BME280;69053;57.338;18.700;2023-05-10T22:51:59;102224.97;;;7.32;68.78
79584;BME280;69053;57.338;18.700;2023-05-10T22:57:00;102227.00;;;7.30;68.85
79584;BME280;69053;57.338;18.700;2023-05-10T23:02:01;102223.91;;;7.25;69.09
79584;BME280;69053;57.338;18.700;2023-05-10T23:07:01;102227.94;;;7.21;68.86
79584;BME280;69053;57.338;18.700;2023-05-10T23:12:02;102230.97;;;7.18;69.24
79584;BME280;69053;57.338;18.700;2023-05-10T23:17:02;102226.53;;;7.17;69.10
79584;BME280;69053;57.338;18.700;2023-05-10T23:22:03;102230.28;;;7.16;69.59
79584;BME280;69053;57.338;18.700;2023-05-10T23:27:04;102232.09;;;7.15;69.75
79584;BME280;69053;57.338;18.700;2023-05-10T23:32:04;102226.53;;;7.17;69.70
79584;BME280;69053;57.338;18.700;2023-05-10T23:37:05;102238.41;;;7.16;69.29
79584;BME280;69053;57.338;18.700;2023-05-10T23:42:06;102236.69;;;7.14;69.56
79584;BME280;69053;57.338;18.700;2023-05-10T23:47:06;102239.53;;;7.13;69.68
79584;BME280;69053;57.338;18.700;2023-05-10T23:52:07;102239.53;;;7.13;69.45
79584;BME280;69053;57.338;18.700;2023-05-10T23:57:07;102235.16;;;7.12;69.62
